sensor_id;sensor_type;location;lat;lon;timestamp;pressure;altitude;pressure_sealevel;temperature;humidity
77867;BME280;67271;59.120;37.970;2023-03-12T00:03:47;97949.75;;;-2.42;81.04
77867;BME280;67271;59.120;37.970;2023-03-12T00:06:13;97942.28;;;-2.39;80.95
77867;BME280;67271;59.120;37.970;2023-03-12T00:08:39;97942.13;;;-2.37;80.99
77867;BME280;67271;59.120;37.970;2023-03-12T00:11:08;97938.50;;;-2.36;81.06
77867;BME280;67271;59.120;37.970;2023-03-12T00:13:34;97937.34;;;-2.33;80.78
77867;BME280;67271;59.120;37.970;2023-03-12T00:16:09;97917.78;;;-2.33;81.09
77867;BME280;67271;59.120;37.970;2023-03-12T00:18:35;97916.94;;;-2.33;80.75
77867;BME280;67271;59.120;37.970;2023-03-12T00:21:01;97913.31;;;-2.32;80.85
77867;BME280;67271;59.120;37.970;2023-03-12T00:23:27;97897.09;;;-2.29;80.93
77867;BME280;67271;59.120;37.970;2023-03-12T00:25:52;97902.22;;;-2.27;80.88
77867;BME280;67271;59.120;37.970;2023-03-12T00:28:18;97882.03;;;-2.28;80.89
77867;BME280;67271;59.120;37.970;2023-03-12T00:30:44;97875.72;;;-2.27;80.77
77867;BME280;67271;59.120;37.970;2023-03-12T00:33:11;97886.16;;;-2.26;81.13
77867;BME280;67271;59.120;37.970;2023-03-12T00:35:37;97849.09;;;-2.26;80.51
77867;BME280;67271;59.120;37.970;2023-03-12T00:38:03;97854.00;;;-2.23;80.95
77867;BME280;67271;59.120;37.970;2023-03-12T00:40:29;97835.31;;;-2.21;80.56
77867;BME280;67271;59.120;37.970;2023-03-12T00:42:55;97824.38;;;-2.18;80.51
77867;BME280;67271;59.120;37.970;2023-03-12T00:45:21;97827.66;;;-2.16;80.58
77867;BME280;67271;59.120;37.970;2023-03-12T00:47:46;97811.44;;;-2.13;80.69
77867;BME280;67271;59.120;37.970;2023-03-12T00:50:12;97809.59;;;-2.13;80.70
77867;BME280;67271;59.120;37.970;2023-03-12T00:52:38;97794.53;;;-2.12;80.66
77867;BME280;67271;59.120;37.970;2023-03-12T00:55:04;97796.81;;;-2.09;80.70
77867;BME280;67271;59.120;37.970;2023-03-12T00:57:30;97790.34;;;-2.07;80.28
77867;BME280;67271;59.120;37.970;2023-03-12T00:59:55;97782.69;;;-2.02;80.60
77867;BME280;67271;59.120;37.970;2023-03-12T01:02:21;97785.34;;;-2.02;80.39
77867;BME280;67271;59.120;37.970;2023-03-12T01:04:47;97778.88;;;-1.99;80.52
77867;BME280;67271;59.120;37.970;2023-03-12T01:07:13;97768.78;;;-1.96;80.03
77867;BME280;67271;59.120;37.970;2023-03-12T01:09:39;97758.47;;;-1.90;80.59
77867;BME280;67271;59.120;37.970;2023-03-12T01:12:05;97756.09;;;-1.85;80.24
77867;BME280;67271;59.120;37.970;2023-03-12T01:14:31;97746.97;;;-1.83;80.07
77867;BME280;67271;59.120;37.970;2023-03-12T01:16:57;97752.94;;;-1.81;80.42
77867;BME280;67271;59.120;37.970;2023-03-12T01:19:23;97738.47;;;-1.78;80.27
77867;BME280;67271;59.120;37.970;2023-03-12T01:21:48;97735.66;;;-1.77;80.39
77867;BME280;67271;59.120;37.970;2023-03-12T01:24:14;97739.13;;;-1.76;80.53
77867;BME280;67271;59.120;37.970;2023-03-12T01:26:40;97743.44;;;-1.75;80.30
77867;BME280;67271;59.120;37.970;2023-03-12T01:29:06;97741.63;;;-1.75;80.48
77867;BME280;67271;59.120;37.970;2023-03-12T01:31:31;97732.47;;;-1.72;80.75
77867;BME280;67271;59.120;37.970;2023-03-12T01:33:57;97748.19;;;-1.71;80.72
77867;BME280;67271;59.120;37.970;2023-03-12T01:36:25;97734.28;;;-1.73;80.87
77867;BME280;67271;59.120;37.970;2023-03-12T01:38:54;97727.53;;;-1.75;80.98
77867;BME280;67271;59.120;37.970;2023-03-12T01:41:22;97706.66;;;-1.78;81.05
77867;BME280;67271;59.120;37.970;2023-03-12T01:43:48;97732.53;;;-1.80;81.56
77867;BME280;67271;59.120;37.970;2023-03-12T01:51:48;97712.69;;;-1.84;82.03
77867;BME280;67271;59.120;37.970;2023-03-12T01:54:37;97704.91;;;-1.86;82.19
77867;BME280;67271;59.120;37.970;2023-03-12T01:57:02;97698.97;;;-1.88;82.03
77867;BME280;67271;59.120;37.970;2023-03-12T01:59:32;97689.19;;;-1.87;82.36
77867;BME280;67271;59.120;37.970;2023-03-12T02:02:02;97681.88;;;-1.85;82.37
77867;BME280;67271;59.120;37.970;2023-03-12T02:04:30;97661.50;;;-1.85;82.37
77867;BME280;67271;59.120;37.970;2023-03-12T02:07:02;97668.47;;;-1.84;82.42
77867;BME280;67271;59.120;37.970;2023-03-12T02:09:31;97655.66;;;-1.80;82.70
77867;BME280;67271;59.120;37.970;2023-03-12T02:11:58;97660.16;;;-1.81;82.88
77867;BME280;67271;59.120;37.970;2023-03-12T02:14:24;97634.47;;;-1.80;83.48
77867;BME280;67271;59.120;37.970;2023-03-12T02:16:50;97632.47;;;-1.78;83.21
77867;BME280;67271;59.120;37.970;2023-03-12T02:19:29;97632.28;;;-1.77;83.76
77867;BME280;67271;59.120;37.970;2023-03-12T02:21:58;97623.16;;;-1.74;83.84
77867;BME280;67271;59.120;37.970;2023-03-12T02:26:55;97607.03;;;-1.73;83.71
77867;BME280;67271;59.120;37.970;2023-03-12T02:29:21;97605.88;;;-1.70;83.34
77867;BME280;67271;59.120;37.970;2023-03-12T02:31:51;97594.91;;;-1.67;83.85
77867;BME280;67271;59.120;37.970;2023-03-12T02:34:18;97606.78;;;-1.63;84.01
77867;BME280;67271;59.120;37.970;2023-03-12T02:36:46;97601.13;;;-1.60;84.04
77867;BME280;67271;59.120;37.970;2023-03-12T02:39:12;97596.47;;;-1.58;84.05
77867;BME280;67271;59.120;37.970;2023-03-12T02:44:09;97590.63;;;-1.53;84.20
77867;BME280;67271;59.120;37.970;2023-03-12T02:46:45;97573.53;;;-1.51;84.15
77867;BME280;67271;59.120;37.970;2023-03-12T02:49:14;97566.56;;;-1.52;83.93
77867;BME280;67271;59.120;37.970;2023-03-12T02:51:41;97565.56;;;-1.51;84.54
77867;BME280;67271;59.120;37.970;2023-03-12T02:54:09;97545.81;;;-1.48;84.16
77867;BME280;67271;59.120;37.970;2023-03-12T02:56:35;97544.63;;;-1.46;84.51
77867;BME280;67271;59.120;37.970;2023-03-12T02:59:02;97540.13;;;-1.45;84.40
77867;BME280;67271;59.120;37.970;2023-03-12T03:01:28;97545.88;;;-1.42;84.43
77867;BME280;67271;59.120;37.970;2023-03-12T03:03:54;97527.97;;;-1.40;84.30
77867;BME280;67271;59.120;37.970;2023-03-12T03:06:21;97518.66;;;-1.36;84.39
77867;BME280;67271;59.120;37.970;2023-03-12T03:08:47;97515.59;;;-1.33;84.49
77867;BME280;67271;59.120;37.970;2023-03-12T03:11:14;97517.25;;;-1.32;84.38
77867;BME280;67271;59.120;37.970;2023-03-12T03:13:39;97513.84;;;-1.26;84.80
77867;BME280;67271;59.120;37.970;2023-03-12T03:16:06;97524.91;;;-1.22;84.72
77867;BME280;67271;59.120;37.970;2023-03-12T03:18:32;97510.25;;;-1.18;84.73
77867;BME280;67271;59.120;37.970;2023-03-12T03:21:00;97513.38;;;-1.14;84.96
77867;BME280;67271;59.120;37.970;2023-03-12T03:23:28;97498.53;;;-1.09;84.79
77867;BME280;67271;59.120;37.970;2023-03-12T03:25:54;97497.34;;;-1.06;84.95
77867;BME280;67271;59.120;37.970;2023-03-12T03:28:24;97488.63;;;-1.00;84.84
77867;BME280;67271;59.120;37.970;2023-03-12T03:30:55;97491.69;;;-0.97;85.08
77867;BME280;67271;59.120;37.970;2023-03-12T03:33:32;97498.94;;;-0.91;85.21
77867;BME280;67271;59.120;37.970;2023-03-12T03:35:59;97476.75;;;-0.83;85.02
77867;BME280;67271;59.120;37.970;2023-03-12T03:38:30;97471.22;;;-0.82;85.02
77867;BME280;67271;59.120;37.970;2023-03-12T03:40:56;97457.56;;;-0.79;84.97
77867;BME280;67271;59.120;37.970;2023-03-12T03:43:22;97439.41;;;-0.75;85.02
77867;BME280;67271;59.120;37.970;2023-03-12T03:46:04;97440.50;;;-0.69;84.96
77867;BME280;67271;59.120;37.970;2023-03-12T03:48:33;97436.84;;;-0.68;84.54
77867;BME280;67271;59.120;37.970;2023-03-12T03:51:01;97432.97;;;-0.66;84.52
77867;BME280;67271;59.120;37.970;2023-03-12T03:53:29;97422.59;;;-0.61;84.88
77867;BME280;67271;59.120;37.970;2023-03-12T03:55:56;97427.50;;;-0.58;85.03
77867;BME280;67271;59.120;37.970;2023-03-12T03:58:22;97422.66;;;-0.54;85.13
77867;BME280;67271;59.120;37.970;2023-03-12T04:00:48;97413.28;;;-0.50;84.65
77867;BME280;67271;59.120;37.970;2023-03-12T04:03:13;97416.38;;;-0.47;84.73
77867;BME280;67271;59.120;37.970;2023-03-12T04:05:40;97385.72;;;-0.43;84.95
77867;BME280;67271;59.120;37.970;2023-03-12T04:08:12;97383.72;;;-0.41;84.72
77867;BME280;67271;59.120;37.970;2023-03-12T04:10:39;97388.63;;;-0.38;84.71
77867;BME280;67271;59.120;37.970;2023-03-12T04:13:05;97397.03;;;-0.34;85.05
77867;BME280;67271;59.120;37.970;2023-03-12T04:15:30;97376.22;;;-0.30;85.07
77867;BME280;67271;59.120;37.970;2023-03-12T04:17:57;97379.09;;;-0.25;84.81
77867;BME280;67271;59.120;37.970;2023-03-12T04:20:23;97363.38;;;-0.20;84.75
77867;BME280;67271;59.120;37.970;2023-03-12T04:22:49;97376.09;;;-0.16;84.65
77867;BME280;67271;59.120;37.970;2023-03-12T04:25:16;97373.66;;;-0.11;84.59
77867;BME280;67271;59.120;37.970;2023-03-12T04:27:42;97364.25;;;-0.07;84.34
77867;BME280;67271;59.120;37.970;2023-03-12T04:30:08;97364.69;;;-0.03;84.49
77867;BME280;67271;59.120;37.970;2023-03-12T04:32:36;97358.78;;;0.02;84.31
77867;BME280;67271;59.120;37.970;2023-03-12T04:35:02;97360.22;;;0.04;84.29
77867;BME280;67271;59.120;37.970;2023-03-12T04:37:31;97339.16;;;0.09;84.29
77867;BME280;67271;59.120;37.970;2023-03-12T04:39:57;97348.00;;;0.16;84.02
77867;BME280;67271;59.120;37.970;2023-03-12T04:42:23;97346.59;;;0.20;84.03
77867;BME280;67271;59.120;37.970;2023-03-12T04:44:49;97354.16;;;0.23;84.12
77867;BME280;67271;59.120;37.970;2023-03-12T04:47:17;97361.53;;;0.28;84.11
77867;BME280;67271;59.120;37.970;2023-03-12T04:49:44;97328.63;;;0.29;84.09
77867;BME280;67271;59.120;37.970;2023-03-12T04:52:10;97324.13;;;0.29;83.89
77867;BME280;67271;59.120;37.970;2023-03-12T04:54:36;97333.50;;;0.32;83.85
77867;BME280;67271;59.120;37.970;2023-03-12T04:57:02;97334.97;;;0.34;84.37
77867;BME280;67271;59.120;37.970;2023-03-12T04:59:28;97341.94;;;0.35;84.37
77867;BME280;67271;59.120;37.970;2023-03-12T05:01:54;97326.97;;;0.34;84.29
77867;BME280;67271;59.120;37.970;2023-03-12T05:04:24;97326.16;;;0.34;84.40
77867;BME280;67271;59.120;37.970;2023-03-12T05:06:51;97324.72;;;0.38;84.61
77867;BME280;67271;59.120;37.970;2023-03-12T05:09:17;97311.44;;;0.38;84.54
77867;BME280;67271;59.120;37.970;2023-03-12T05:11:43;97327.19;;;0.39;84.69
77867;BME280;67271;59.120;37.970;2023-03-12T05:14:11;97313.50;;;0.43;84.64
77867;BME280;67271;59.120;37.970;2023-03-12T05:16:37;97316.16;;;0.43;84.67
77867;BME280;67271;59.120;37.970;2023-03-12T05:19:03;97295.09;;;0.48;84.28
77867;BME280;67271;59.120;37.970;2023-03-12T05:21:29;97307.16;;;0.50;84.82
77867;BME280;67271;59.120;37.970;2023-03-12T05:23:57;97301.41;;;0.53;84.80
77867;BME280;67271;59.120;37.970;2023-03-12T05:26:27;97278.94;;;0.56;84.79
77867;BME280;67271;59.120;37.970;2023-03-12T05:29:00;97276.25;;;0.56;85.04
77867;BME280;67271;59.120;37.970;2023-03-12T05:31:27;97277.91;;;0.57;85.06
77867;BME280;67271;59.120;37.970;2023-03-12T05:33:58;97297.53;;;0.56;85.05
77867;BME280;67271;59.120;37.970;2023-03-12T05:36:24;97286.72;;;0.57;85.30
77867;BME280;67271;59.120;37.970;2023-03-12T05:38:50;97268.91;;;0.58;85.34
77867;BME280;67271;59.120;37.970;2023-03-12T05:41:27;97260.72;;;0.59;85.36
77867;BME280;67271;59.120;37.970;2023-03-12T05:43:57;97261.13;;;0.63;85.45
77867;BME280;67271;59.120;37.970;2023-03-12T05:46:24;97258.06;;;0.66;85.24
77867;BME280;67271;59.120;37.970;2023-03-12T05:48:51;97257.03;;;0.67;85.17
77867;BME280;67271;59.120;37.970;2023-03-12T05:51:18;97257.63;;;0.69;85.50
77867;BME280;67271;59.120;37.970;2023-03-12T05:53:44;97236.16;;;0.70;85.22
77867;BME280;67271;59.120;37.970;2023-03-12T05:56:12;97248.63;;;0.70;85.11
77867;BME280;67271;59.120;37.970;2023-03-12T05:58:39;97245.97;;;0.70;85.44
77867;BME280;67271;59.120;37.970;2023-03-12T06:01:14;97233.50;;;0.70;85.54
77867;BME280;67271;59.120;37.970;2023-03-12T06:03:42;97222.66;;;0.72;85.67
77867;BME280;67271;59.120;37.970;2023-03-12T06:06:08;97221.41;;;0.74;85.66
77867;BME280;67271;59.120;37.970;2023-03-12T06:08:34;97202.16;;;0.79;85.57
77867;BME280;67271;59.120;37.970;2023-03-12T06:11:00;97228.97;;;0.84;85.47
77867;BME280;67271;59.120;37.970;2023-03-12T06:13:26;97220.97;;;0.91;85.42
77867;BME280;67271;59.120;37.970;2023-03-12T06:16:03;97227.72;;;0.93;85.40
77867;BME280;67271;59.120;37.970;2023-03-12T06:18:33;97218.72;;;0.94;85.32
77867;BME280;67271;59.120;37.970;2023-03-12T06:21:20;97214.84;;;0.97;85.35
77867;BME280;67271;59.120;37.970;2023-03-12T06:23:48;97196.78;;;0.99;85.56
77867;BME280;67271;59.120;37.970;2023-03-12T06:26:20;97207.03;;;1.02;85.41
77867;BME280;67271;59.120;37.970;2023-03-12T06:28:47;97204.56;;;1.07;85.58
77867;BME280;67271;59.120;37.970;2023-03-12T06:31:14;97195.97;;;1.11;85.39
77867;BME280;67271;59.120;37.970;2023-03-12T06:33:40;97188.56;;;1.13;85.60
77867;BME280;67271;59.120;37.970;2023-03-12T06:36:07;97195.53;;;1.14;85.72
77867;BME280;67271;59.120;37.970;2023-03-12T06:38:34;97189.34;;;1.21;85.33
77867;BME280;67271;59.120;37.970;2023-03-12T06:43:29;97183.22;;;1.27;85.67
77867;BME280;67271;59.120;37.970;2023-03-12T06:45:56;97197.34;;;1.27;85.68
77867;BME280;67271;59.120;37.970;2023-03-12T06:48:23;97180.75;;;1.25;85.72
77867;BME280;67271;59.120;37.970;2023-03-12T06:50:50;97175.00;;;1.22;85.94
77867;BME280;67271;59.120;37.970;2023-03-12T06:53:16;97178.28;;;1.24;86.06
77867;BME280;67271;59.120;37.970;2023-03-12T06:55:43;97162.94;;;1.26;86.23
77867;BME280;67271;59.120;37.970;2023-03-12T06:58:10;97164.78;;;1.25;86.18
77867;BME280;67271;59.120;37.970;2023-03-12T07:00:37;97154.09;;;1.32;86.20
77867;BME280;67271;59.120;37.970;2023-03-12T07:03:03;97148.47;;;1.46;85.81
77867;BME280;67271;59.120;37.970;2023-03-12T07:05:29;97144.97;;;1.52;85.85
77867;BME280;67271;59.120;37.970;2023-03-12T07:07:55;97150.25;;;1.59;85.74
77867;BME280;67271;59.120;37.970;2023-03-12T07:10:21;97148.81;;;1.63;85.79
77867;BME280;67271;59.120;37.970;2023-03-12T07:12:47;97138.16;;;1.63;85.89
77867;BME280;67271;59.120;37.970;2023-03-12T07:15:13;97130.53;;;1.67;86.07
77867;BME280;67271;59.120;37.970;2023-03-12T07:17:39;97135.03;;;1.66;86.09
77867;BME280;67271;59.120;37.970;2023-03-12T07:20:06;97122.94;;;1.70;85.92
77867;BME280;67271;59.120;37.970;2023-03-12T07:22:32;97125.59;;;1.70;86.06
77867;BME280;67271;59.120;37.970;2023-03-12T07:24:58;97118.63;;;1.69;85.82
77867;BME280;67271;59.120;37.970;2023-03-12T07:27:23;97130.94;;;1.70;85.80
77867;BME280;67271;59.120;37.970;2023-03-12T07:29:49;97112.13;;;1.65;86.20
77867;BME280;67271;59.120;37.970;2023-03-12T07:32:15;97122.97;;;1.64;86.23
77867;BME280;67271;59.120;37.970;2023-03-12T07:34:41;97103.50;;;1.63;86.36
77867;BME280;67271;59.120;37.970;2023-03-12T07:37:08;97093.47;;;1.65;86.11
77867;BME280;67271;59.120;37.970;2023-03-12T07:39:33;97105.16;;;1.64;86.14
77867;BME280;67271;59.120;37.970;2023-03-12T07:41:59;97095.50;;;1.63;86.25
77867;BME280;67271;59.120;37.970;2023-03-12T07:44:25;97102.47;;;1.64;86.48
77867;BME280;67271;59.120;37.970;2023-03-12T07:46:52;97095.50;;;1.63;86.39
77867;BME280;67271;59.120;37.970;2023-03-12T07:49:18;97094.25;;;1.66;86.40
77867;BME280;67271;59.120;37.970;2023-03-12T07:51:45;97096.50;;;1.69;86.46
77867;BME280;67271;59.120;37.970;2023-03-12T07:54:11;97082.56;;;1.67;86.50
77867;BME280;67271;59.120;37.970;2023-03-12T07:56:37;97074.81;;;1.65;86.33
77867;BME280;67271;59.120;37.970;2023-03-12T07:59:03;97077.63;;;1.70;86.69
77867;BME280;67271;59.120;37.970;2023-03-12T08:01:29;97080.44;;;1.75;86.36
77867;BME280;67271;59.120;37.970;2023-03-12T08:03:57;97072.03;;;1.78;86.35
77867;BME280;67271;59.120;37.970;2023-03-12T08:06:24;97071.38;;;1.83;86.32
77867;BME280;67271;59.120;37.970;2023-03-12T08:08:50;97072.41;;;1.82;86.33
77867;BME280;67271;59.120;37.970;2023-03-12T08:11:15;97053.13;;;1.86;86.26
77867;BME280;67271;59.120;37.970;2023-03-12T08:13:41;97056.13;;;1.90;86.02
77867;BME280;67271;59.120;37.970;2023-03-12T08:16:07;97055.31;;;1.89;86.38
77867;BME280;67271;59.120;37.970;2023-03-12T08:18:33;97054.25;;;1.97;86.18
77867;BME280;67271;59.120;37.970;2023-03-12T08:20:59;97049.13;;;1.95;86.03
77867;BME280;67271;59.120;37.970;2023-03-12T08:23:25;97045.41;;;1.97;86.30
77867;BME280;67271;59.120;37.970;2023-03-12T08:25:52;97043.16;;;2.00;85.96
77867;BME280;67271;59.120;37.970;2023-03-12T08:28:19;97033.91;;;2.03;85.88
77867;BME280;67271;59.120;37.970;2023-03-12T08:30:47;97030.63;;;2.01;85.90
77867;BME280;67271;59.120;37.970;2023-03-12T08:33:13;97020.56;;;2.03;85.65
77867;BME280;67271;59.120;37.970;2023-03-12T08:35:38;97019.50;;;2.04;85.94
77867;BME280;67271;59.120;37.970;2023-03-12T08:38:05;97011.69;;;2.09;86.19
77867;BME280;67271;59.120;37.970;2023-03-12T08:40:30;97013.63;;;2.20;85.83
77867;BME280;67271;59.120;37.970;2023-03-12T08:42:56;97014.97;;;2.29;85.61
77867;BME280;67271;59.120;37.970;2023-03-12T08:45:22;97009.03;;;2.27;85.66
77867;BME280;67271;59.120;37.970;2023-03-12T08:47:48;97008.88;;;2.22;85.82
77867;BME280;67271;59.120;37.970;2023-03-12T08:50:15;97010.81;;;2.15;86.13
77867;BME280;67271;59.120;37.970;2023-03-12T08:52:42;97000.75;;;2.17;85.92
77867;BME280;67271;59.120;37.970;2023-03-12T08:55:09;97003.53;;;2.22;85.94
77867;BME280;67271;59.120;37.970;2023-03-12T08:57:35;96993.16;;;2.14;85.95
77867;BME280;67271;59.120;37.970;2023-03-12T09:00:03;97001.38;;;2.12;86.07
77867;BME280;67271;59.120;37.970;2023-03-12T09:02:39;96995.50;;;2.04;86.35
77867;BME280;67271;59.120;37.970;2023-03-12T09:05:05;97001.44;;;2.06;86.56
77867;BME280;67271;59.120;37.970;2023-03-12T09:07:31;96998.94;;;2.11;86.33
77867;BME280;67271;59.120;37.970;2023-03-12T09:09:57;96995.69;;;2.09;86.44
77867;BME280;67271;59.120;37.970;2023-03-12T09:12:23;96995.22;;;2.12;86.17
77867;BME280;67271;59.120;37.970;2023-03-12T09:14:50;96995.69;;;2.09;86.10
77867;BME280;67271;59.120;37.970;2023-03-12T09:17:17;96983.38;;;2.08;86.13
77867;BME280;67271;59.120;37.970;2023-03-12T09:19:43;96987.09;;;2.07;86.43
77867;BME280;67271;59.120;37.970;2023-03-12T09:22:09;96985.84;;;2.09;86.22
77867;BME280;67271;59.120;37.970;2023-03-12T09:24:34;96985.63;;;2.29;86.26
77867;BME280;67271;59.120;37.970;2023-03-12T09:27:01;96975.69;;;2.36;85.97
77867;BME280;67271;59.120;37.970;2023-03-12T09:29:29;96978.75;;;2.40;85.67
77867;BME280;67271;59.120;37.970;2023-03-12T09:31:55;96975.41;;;2.44;85.52
77867;BME280;67271;59.120;37.970;2023-03-12T09:34:21;96966.41;;;2.57;85.59
77867;BME280;67271;59.120;37.970;2023-03-12T09:36:46;96959.44;;;2.56;85.10
77867;BME280;67271;59.120;37.970;2023-03-12T09:39:12;96963.16;;;2.55;85.53
77867;BME280;67271;59.120;37.970;2023-03-12T09:41:39;96962.09;;;2.56;85.38
77867;BME280;67271;59.120;37.970;2023-03-12T09:44:22;96955.81;;;2.50;85.54
77867;BME280;67271;59.120;37.970;2023-03-12T09:47:02;96965.88;;;2.48;85.83
77867;BME280;67271;59.120;37.970;2023-03-12T09:49:45;96964.19;;;2.36;86.13
77867;BME280;67271;59.120;37.970;2023-03-12T09:52:17;96948.28;;;2.29;86.39
77867;BME280;67271;59.120;37.970;2023-03-12T09:55:34;96937.16;;;2.32;85.69
77867;BME280;67271;59.120;37.970;2023-03-12T09:57:33;96940.56;;;2.39;86.02
77867;BME280;67271;59.120;37.970;2023-03-12T09:59:59;96953.31;;;2.37;85.69
77867;BME280;67271;59.120;37.970;2023-03-12T10:02:57;96952.50;;;2.37;85.85
77867;BME280;67271;59.120;37.970;2023-03-12T10:05:36;96943.31;;;2.32;85.63
77867;BME280;67271;59.120;37.970;2023-03-12T10:13:42;96942.78;;;2.42;85.88
77867;BME280;67271;59.120;37.970;2023-03-12T10:24:10;96940.09;;;2.60;85.45
77867;BME280;67271;59.120;37.970;2023-03-12T10:26:42;96939.38;;;2.53;85.62
77867;BME280;67271;59.120;37.970;2023-03-12T10:29:15;96934.84;;;2.54;85.60
77867;BME280;67271;59.120;37.970;2023-03-12T10:31:52;96936.84;;;2.58;85.59
77867;BME280;67271;59.120;37.970;2023-03-12T10:37:22;96929.78;;;2.64;85.18
77867;BME280;67271;59.120;37.970;2023-03-12T10:39:51;96921.69;;;2.70;85.40
77867;BME280;67271;59.120;37.970;2023-03-12T10:42:22;96897.22;;;2.73;85.08
77867;BME280;67271;59.120;37.970;2023-03-12T10:44:54;96906.75;;;2.81;84.81
77867;BME280;67271;59.120;37.970;2023-03-12T10:47:42;96901.47;;;2.93;84.75
77867;BME280;67271;59.120;37.970;2023-03-12T10:50:16;96893.19;;;2.94;84.57
77867;BME280;67271;59.120;37.970;2023-03-12T10:52:44;96892.03;;;2.90;84.59
77867;BME280;67271;59.120;37.970;2023-03-12T10:55:28;96894.63;;;2.97;84.61
77867;BME280;67271;59.120;37.970;2023-03-12T10:57:55;96890.69;;;3.11;84.17
77867;BME280;67271;59.120;37.970;2023-03-12T11:00:23;96884.31;;;3.12;84.31
77867;BME280;67271;59.120;37.970;2023-03-12T11:03:01;96885.94;;;3.13;84.07
77867;BME280;67271;59.120;37.970;2023-03-12T11:05:34;96878.97;;;3.12;84.20
77867;BME280;67271;59.120;37.970;2023-03-12T11:08:02;96880.59;;;3.13;84.89
77867;BME280;67271;59.120;37.970;2023-03-12T11:12:58;96875.06;;;3.38;84.22
77867;BME280;67271;59.120;37.970;2023-03-12T11:15:39;96876.31;;;3.47;83.50
77867;BME280;67271;59.120;37.970;2023-03-12T11:18:28;96878.44;;;3.45;83.81
77867;BME280;67271;59.120;37.970;2023-03-12T11:21:14;96878.19;;;3.46;83.73
77867;BME280;67271;59.120;37.970;2023-03-12T11:24:04;96873.19;;;3.38;83.75
77867;BME280;67271;59.120;37.970;2023-03-12T11:32:04;96870.75;;;3.25;83.70
77867;BME280;67271;59.120;37.970;2023-03-12T11:34:33;96875.53;;;3.23;84.30
77867;BME280;67271;59.120;37.970;2023-03-12T11:38:22;96880.03;;;3.23;84.18
77867;BME280;67271;59.120;37.970;2023-03-12T11:51:45;96879.47;;;3.32;84.09
77867;BME280;67271;59.120;37.970;2023-03-12T11:54:40;96880.13;;;3.16;84.18
77867;BME280;67271;59.120;37.970;2023-03-12T11:59:58;96884.78;;;2.79;84.91
77867;BME280;67271;59.120;37.970;2023-03-12T12:03:06;96896.03;;;2.69;85.00
77867;BME280;67271;59.120;37.970;2023-03-12T12:06:03;96881.88;;;2.69;84.89
77867;BME280;67271;59.120;37.970;2023-03-12T12:22:20;96877.38;;;2.21;84.14
77867;BME280;67271;59.120;37.970;2023-03-12T12:28:24;96869.63;;;2.02;84.69
77867;BME280;67271;59.120;37.970;2023-03-12T12:36:10;96855.72;;;2.11;84.09
77867;BME280;67271;59.120;37.970;2023-03-12T12:38:46;96858.19;;;2.13;84.29
77867;BME280;67271;59.120;37.970;2023-03-12T12:41:20;96855.97;;;2.10;83.80
77867;BME280;67271;59.120;37.970;2023-03-12T12:43:49;96852.94;;;2.06;83.93
77867;BME280;67271;59.120;37.970;2023-03-12T12:46:19;96857.66;;;2.04;84.03
77867;BME280;67271;59.120;37.970;2023-03-12T12:48:56;96854.88;;;1.99;83.97
77867;BME280;67271;59.120;37.970;2023-03-12T12:51:30;96855.97;;;1.91;83.92
77867;BME280;67271;59.120;37.970;2023-03-12T13:00:45;96857.75;;;1.79;83.80
77867;BME280;67271;59.120;37.970;2023-03-12T13:03:22;96868.78;;;1.83;83.82
77867;BME280;67271;59.120;37.970;2023-03-12T13:06:01;96859.31;;;1.87;83.62
77867;BME280;67271;59.120;37.970;2023-03-12T13:19:03;96872.84;;;1.49;84.21
77867;BME280;67271;59.120;37.970;2023-03-12T13:27:10;96877.28;;;1.30;84.13
77867;BME280;67271;59.120;37.970;2023-03-12T13:29:41;96869.75;;;1.27;83.98
77867;BME280;67271;59.120;37.970;2023-03-12T13:45:30;96878.66;;;0.90;83.99
77867;BME280;67271;59.120;37.970;2023-03-12T13:48:01;96880.16;;;0.79;84.35
77867;BME280;67271;59.120;37.970;2023-03-12T13:50:30;96880.41;;;0.71;84.25
77867;BME280;67271;59.120;37.970;2023-03-12T13:53:05;96886.44;;;0.60;84.65
77867;BME280;67271;59.120;37.970;2023-03-12T13:55:35;96892.38;;;0.55;84.46
77867;BME280;67271;59.120;37.970;2023-03-12T13:58:13;96887.66;;;0.57;84.15
77867;BME280;67271;59.120;37.970;2023-03-12T14:01:02;96882.75;;;0.54;83.91
77867;BME280;67271;59.120;37.970;2023-03-12T14:16:41;96911.75;;;0.24;84.19
77867;BME280;67271;59.120;37.970;2023-03-12T14:19:16;96902.38;;;0.22;84.03
77867;BME280;67271;59.120;37.970;2023-03-12T14:21:44;96914.47;;;0.11;84.02
77867;BME280;67271;59.120;37.970;2023-03-12T14:26:49;96917.56;;;-0.05;84.34
77867;BME280;67271;59.120;37.970;2023-03-12T14:31:53;96934.78;;;-0.27;84.83
77867;BME280;67271;59.120;37.970;2023-03-12T14:34:23;96937.28;;;-0.39;84.76
77867;BME280;67271;59.120;37.970;2023-03-12T14:37:12;96951.16;;;-0.57;84.79
77867;BME280;67271;59.120;37.970;2023-03-12T14:39:55;96971.81;;;-0.65;84.96
77867;BME280;67271;59.120;37.970;2023-03-12T14:42:27;96946.69;;;-0.76;85.07
77867;BME280;67271;59.120;37.970;2023-03-12T14:47:46;96975.22;;;-1.04;85.12
77867;BME280;67271;59.120;37.970;2023-03-12T14:50:29;96971.72;;;-1.18;85.27
77867;BME280;67271;59.120;37.970;2023-03-12T14:53:12;96967.41;;;-1.32;85.05
77867;BME280;67271;59.120;37.970;2023-03-12T14:55:38;96969.84;;;-1.44;85.14
77867;BME280;67271;59.120;37.970;2023-03-12T14:58:15;96987.34;;;-1.49;85.34
77867;BME280;67271;59.120;37.970;2023-03-12T15:00:42;96974.25;;;-1.58;85.79
77867;BME280;67271;59.120;37.970;2023-03-12T15:03:15;96973.63;;;-1.66;85.63
77867;BME280;67271;59.120;37.970;2023-03-12T15:05:46;96988.69;;;-1.73;86.09
77867;BME280;67271;59.120;37.970;2023-03-12T15:08:12;96985.16;;;-1.80;86.09
77867;BME280;67271;59.120;37.970;2023-03-12T15:10:39;96985.94;;;-1.86;86.17
77867;BME280;67271;59.120;37.970;2023-03-12T15:13:05;96993.88;;;-1.93;86.46
77867;BME280;67271;59.120;37.970;2023-03-12T15:15:42;96988.75;;;-1.95;86.14
77867;BME280;67271;59.120;37.970;2023-03-12T15:18:27;97002.00;;;-1.95;86.20
77867;BME280;67271;59.120;37.970;2023-03-12T15:20:55;96995.47;;;-1.99;86.10